Time;durP1;ratioP1;P1;durP2;ratioP2;P2;SDS_P1;SDS_P2;PMS_P1;PMS_P2;Temp;Humidity;BMP_temperature;BMP_pressure;BME280_temperature;BME280_humidity;BME280_pressure;Samples;Min_cycle;Max_cycle;Signal;HPM_P1;HPM_P2
2021/08/21 00:02:00;;;;;;;2.80;2.60;;;;;;;12.27;54.84;95844.66;5011286;28;20045;-68
2021/08/21 00:04:25;;;;;;;5.15;2.83;;;;;;;12.25;55.05;95837.84;5010728;28;20773;-68
2021/08/21 00:06:51;;;;;;;2.80;2.60;;;;;;;12.23;54.97;95842.53;5009310;28;20053;-68
2021/08/21 00:09:16;;;;;;;3.55;2.60;;;;;;;12.19;54.86;95843.91;5010462;28;20594;-68
2021/08/21 00:11:41;;;;;;;3.58;2.90;;;;;;;12.14;55.27;95834.63;5011040;28;20058;-68
2021/08/21 00:14:07;;;;;;;4.03;2.70;;;;;;;12.13;55.14;95832.97;5010687;28;20419;-68
2021/08/21 00:16:32;;;;;;;3.22;2.90;;;;;;;12.12;55.13;95844.66;5010601;28;20022;-68
2021/08/21 00:18:59;;;;;;;3.85;2.72;;;;;;;12.04;55.52;95842.03;5010453;28;20225;-68
2021/08/21 00:21:24;;;;;;;4.88;2.83;;;;;;;11.98;55.51;95832.94;5010348;28;20030;-68
2021/08/21 00:23:49;;;;;;;2.97;2.78;;;;;;;11.99;55.30;95836.41;5010933;28;20057;-65
2021/08/21 00:26:15;;;;;;;3.78;2.85;;;;;;;11.97;55.55;95841.09;5010326;28;20066;-65
2021/08/21 00:28:40;;;;;;;3.67;3.00;;;;;;;11.95;55.28;95837.78;5010290;28;20036;-65
2021/08/21 00:31:06;;;;;;;4.60;2.95;;;;;;;11.96;55.46;95837.59;5004223;28;20026;-65
2021/08/21 00:33:31;;;;;;;3.80;2.63;;;;;;;11.93;55.51;95840.63;4992630;28;20037;-65
2021/08/21 00:35:57;;;;;;;2.90;2.60;;;;;;;11.92;55.76;95851.47;5010693;28;20168;-65
2021/08/21 00:38:22;;;;;;;3.30;2.80;;;;;;;11.90;55.61;95841.81;5009665;28;20045;-65
2021/08/21 00:40:47;;;;;;;3.78;2.80;;;;;;;11.91;55.61;95848.00;5009515;28;20034;-65
2021/08/21 00:43:17;;;;;;;4.32;2.88;;;;;;;11.92;55.42;95846.13;5010234;28;20057;-65
2021/08/21 00:45:43;;;;;;;5.10;2.78;;;;;;;11.91;55.49;95837.31;5009258;28;20042;-65
2021/08/21 00:48:08;;;;;;;2.90;2.60;;;;;;;11.89;55.42;95842.84;5009839;28;20823;-65
2021/08/21 00:50:34;;;;;;;4.10;2.70;;;;;;;11.89;55.47;95842.00;5010095;28;20038;-65
2021/08/21 00:52:59;;;;;;;5.65;2.55;;;;;;;11.92;55.36;95838.13;5009616;28;20380;-66
2021/08/21 00:55:25;;;;;;;6.38;2.90;;;;;;;11.95;54.89;95830.63;5009787;28;20472;-66
2021/08/21 00:57:50;;;;;;;4.00;2.88;;;;;;;11.95;55.21;95837.78;5008004;28;20540;-65
2021/08/21 01:00:16;;;;;;;3.63;2.80;;;;;;;11.97;55.33;95833.09;5010155;28;20034;-65
2021/08/21 01:02:41;;;;;;;3.20;2.90;;;;;;;12.00;55.28;95835.41;5009647;28;20081;-65
2021/08/21 01:05:08;;;;;;;3.72;2.60;;;;;;;12.00;55.29;95828.22;5009394;28;20049;-65
2021/08/21 01:07:34;;;;;;;3.85;2.80;;;;;;;12.01;55.18;95832.53;5010210;28;20107;-65
2021/08/21 01:10:20;;;;;;;3.47;2.50;;;;;;;12.01;54.71;95834.41;5009301;28;20112;-65
2021/08/21 01:12:49;;;;;;;5.80;2.55;;;;;;;12.05;54.69;95835.69;5009188;28;20495;-65
2021/08/21 01:15:15;;;;;;;2.78;2.58;;;;;;;12.06;55.11;95832.03;5009620;28;20030;-66
2021/08/21 01:17:40;;;;;;;3.25;2.50;;;;;;;12.08;55.06;95834.53;5010209;28;20042;-66
2021/08/21 01:20:06;;;;;;;4.57;2.50;;;;;;;12.08;54.91;95834.53;5009450;28;20120;-66
2021/08/21 01:22:32;;;;;;;2.50;2.30;;;;;;;12.06;54.69;95834.69;5009445;28;20049;-66
2021/08/21 01:24:57;;;;;;;2.92;2.42;;;;;;;12.09;54.80;95831.66;5009060;28;20041;-66
2021/08/21 01:27:24;;;;;;;2.75;2.55;;;;;;;12.10;54.80;95835.19;5009518;28;20026;-65
2021/08/21 01:29:50;;;;;;;2.92;2.40;;;;;;;12.11;54.83;95832.31;5009420;28;20046;-65
2021/08/21 01:32:16;;;;;;;2.65;2.42;;;;;;;12.13;54.50;95829.44;5009533;28;20083;-65
2021/08/21 01:34:41;;;;;;;2.50;2.30;;;;;;;12.12;54.63;95831.31;5008493;28;20042;-65
2021/08/21 01:37:07;;;;;;;2.63;2.30;;;;;;;12.12;54.44;95833.16;5008846;28;20041;-65
2021/08/21 01:39:32;;;;;;;2.58;2.35;;;;;;;12.12;54.35;95825.97;5008563;28;20766;-66
2021/08/21 01:41:58;;;;;;;2.70;2.50;;;;;;;12.11;54.49;95824.28;5009056;28;20438;-66
2021/08/21 01:44:23;;;;;;;6.00;2.30;;;;;;;12.09;54.55;95820.16;5008996;28;20456;-66
2021/08/21 01:46:49;;;;;;;2.70;2.25;;;;;;;12.07;54.80;95827.53;5004360;28;20046;-65
2021/08/21 01:49:16;;;;;;;2.47;2.28;;;;;;;12.06;54.77;95818.69;5009106;28;20045;-65
2021/08/21 01:51:42;;;;;;;2.70;2.30;;;;;;;12.03;54.67;95830.53;5007838;28;20121;-65
2021/08/21 01:54:15;;;;;;;3.80;2.30;;;;;;;11.96;54.70;95824.25;5002643;28;20041;-65
2021/08/21 01:56:45;;;;;;;2.40;2.20;;;;;;;11.95;55.10;95824.44;5006497;28;20038;-66
2021/08/21 01:59:21;;;;;;;4.53;2.28;;;;;;;11.92;54.76;95825.63;5007725;28;20080;-66
2021/08/21 02:01:47;;;;;;;4.15;2.30;;;;;;;11.92;55.29;95827.47;5008650;28;20080;-66
2021/08/21 02:04:13;;;;;;;3.72;2.60;;;;;;;11.89;54.75;95829.50;5007300;28;20045;-66
2021/08/21 02:06:38;;;;;;;6.57;2.38;;;;;;;11.87;55.33;95820.03;5008198;28;20041;-66
2021/08/21 02:09:03;;;;;;;2.95;2.30;;;;;;;11.83;55.50;95822.22;5008470;28;20038;-66
2021/08/21 02:11:29;;;;;;;2.60;2.40;;;;;;;11.80;55.25;95822.56;5008612;28;20505;-66
2021/08/21 02:13:54;;;;;;;2.78;2.40;;;;;;;11.78;55.07;95819.25;5008183;28;20054;-66
2021/08/21 02:16:20;;;;;;;3.15;2.40;;;;;;;11.74;55.48;95823.31;5008744;28;20783;-66
2021/08/21 02:18:45;;;;;;;2.90;2.60;;;;;;;11.70;55.69;95822.00;5008116;28;20522;-65
2021/08/21 02:21:12;;;;;;;4.35;2.70;;;;;;;11.67;55.83;95815.19;5008493;28;20038;-66
2021/08/21 02:23:38;;;;;;;5.13;2.50;;;;;;;11.64;55.89;95818.22;5009069;28;20037;-65
2021/08/21 02:26:03;;;;;;;2.88;2.30;;;;;;;11.61;55.93;95822.09;5008432;28;20359;-65
2021/08/21 02:28:29;;;;;;;3.95;2.40;;;;;;;11.58;56.17;95825.09;5008357;28;20026;-65
2021/08/21 02:30:54;;;;;;;2.70;2.50;;;;;;;11.59;56.16;95817.94;5008582;28;20085;-65
2021/08/21 02:33:20;;;;;;;2.72;2.53;;;;;;;11.56;56.26;95823.63;5008361;28;20041;-65
2021/08/21 02:35:45;;;;;;;2.60;2.40;;;;;;;11.56;56.21;95821.78;5008606;28;20143;-65
2021/08/21 02:38:11;;;;;;;3.33;2.47;;;;;;;11.54;56.13;95815.81;5008130;28;20040;-65
2021/08/21 02:40:36;;;;;;;2.60;2.40;;;;;;;11.56;56.06;95819.09;5007672;28;20048;-65
2021/08/21 02:43:02;;;;;;;2.85;2.55;;;;;;;11.54;56.22;95818.47;4990945;28;20037;-65
2021/08/21 02:45:28;;;;;;;4.80;2.85;;;;;;;11.52;56.28;95820.47;5007026;28;20545;-65
2021/08/21 02:47:54;;;;;;;3.78;2.78;;;;;;;11.46;56.28;95811.34;5009062;28;20608;-66
2021/08/21 02:50:19;;;;;;;4.78;3.00;;;;;;;11.45;56.42;95809.69;5008033;28;20042;-66
2021/08/21 02:52:45;;;;;;;4.43;2.60;;;;;;;11.46;56.16;95810.53;5008339;28;20026;-66
2021/08/21 02:55:10;;;;;;;4.90;2.75;;;;;;;11.45;56.25;95806.19;5007060;28;20038;-65
2021/08/21 02:57:35;;;;;;;2.53;2.28;;;;;;;11.45;55.98;95811.53;5006032;28;20475;-65
2021/08/21 03:00:01;;;;;;;2.70;2.50;;;;;;;11.45;55.73;95803.53;5008654;28;20047;-65
2021/08/21 03:02:26;;;;;;;2.78;2.47;;;;;;;11.43;56.42;95797.56;5007995;28;20144;-66
2021/08/21 03:04:52;;;;;;;2.88;2.60;;;;;;;11.43;56.16;95798.41;5008189;28;20038;-66
2021/08/21 03:07:18;;;;;;;3.10;2.80;;;;;;;11.41;56.21;95799.56;5008315;28;20030;-66
2021/08/21 03:09:43;;;;;;;3.25;2.53;;;;;;;11.40;56.58;95801.41;5008241;28;20146;-65
2021/08/21 03:12:09;;;;;;;3.50;2.70;;;;;;;11.39;56.29;95803.25;5009384;28;20046;-65
2021/08/21 03:14:34;;;;;;;2.83;2.40;;;;;;;11.35;56.65;95798.44;5011796;28;20478;-65
2021/08/21 03:17:00;;;;;;;2.47;2.25;;;;;;;11.35;56.65;95799.28;5011436;28;20876;-65
2021/08/21 03:19:25;;;;;;;3.63;2.67;;;;;;;11.35;56.45;95799.28;5011887;28;20475;-65
2021/08/21 03:21:50;;;;;;;5.18;2.42;;;;;;;11.33;56.44;95800.47;5011648;28;20045;-65
2021/08/21 03:24:16;;;;;;;2.55;2.35;;;;;;;11.31;56.42;95797.13;5012243;28;20041;-65
2021/08/21 03:26:41;;;;;;;2.75;2.33;;;;;;;11.28;56.85;95797.53;5011335;28;20048;-65
2021/08/21 03:29:08;;;;;;;2.92;2.30;;;;;;;11.25;57.21;95802.19;5011478;28;20057;-65
2021/08/21 03:31:33;;;;;;;2.47;2.28;;;;;;;11.25;56.96;95796.00;5011856;28;20041;-66
2021/08/21 03:33:59;;;;;;;3.40;2.40;;;;;;;11.26;56.77;95801.16;5011383;28;20041;-66
2021/08/21 03:36:24;;;;;;;3.08;2.60;;;;;;;11.27;56.64;95796.69;5012037;28;20038;-65
2021/08/21 03:38:50;;;;;;;3.30;2.47;;;;;;;11.26;56.79;95795.03;5010359;28;20404;-65
2021/08/21 03:41:15;;;;;;;4.07;2.60;;;;;;;11.25;56.78;95796.84;5011335;28;20042;-65
2021/08/21 03:43:41;;;;;;;3.80;2.45;;;;;;;11.25;56.94;95796.00;5011706;28;20036;-65
2021/08/21 03:46:06;;;;;;;2.55;2.30;;;;;;;11.26;56.59;95800.38;5005865;28;20038;-65
2021/08/21 03:48:32;;;;;;;2.28;2.08;;;;;;;11.24;56.70;95802.38;5010745;28;20038;-66
2021/08/21 03:50:57;;;;;;;2.50;2.30;;;;;;;11.22;56.69;95799.06;5011841;28;20076;-65
2021/08/21 03:53:22;;;;;;;2.83;2.47;;;;;;;11.20;56.60;95793.06;5010748;28;20057;-65
2021/08/21 03:55:49;;;;;;;3.38;2.40;;;;;;;11.19;56.83;95792.22;5011382;28;20026;-65
2021/08/21 03:58:15;;;;;;;3.97;2.30;;;;;;;11.18;56.92;95789.75;5008716;28;20160;-65
2021/08/21 04:00:40;;;;;;;2.83;2.50;;;;;;;11.18;56.91;95793.25;5010556;28;20040;-65
2021/08/21 04:03:06;;;;;;;2.75;2.42;;;;;;;11.18;56.32;95792.44;5010544;28;20109;-65
2021/08/21 04:05:31;;;;;;;2.53;2.33;;;;;;;11.12;56.89;95789.44;5010408;28;20041;-65
2021/08/21 04:07:57;;;;;;;3.67;2.58;;;;;;;11.15;56.84;95792.78;5010824;28;20026;-65
2021/08/21 04:10:22;;;;;;;3.00;2.70;;;;;;;11.15;56.42;95792.78;5010585;28;20080;-65
2021/08/21 04:12:48;;;;;;;3.00;2.33;;;;;;;11.12;56.76;95794.78;5010561;28;20731;-65
2021/08/21 04:15:14;;;;;;;2.67;2.47;;;;;;;11.12;56.83;95799.28;5011261;28;20735;-65
2021/08/21 04:17:40;;;;;;;3.60;2.60;;;;;;;11.11;56.67;95798.44;5009897;28;20050;-65
2021/08/21 04:20:06;;;;;;;4.03;2.47;;;;;;;11.16;56.86;95797.94;5011271;28;20087;-65
2021/08/21 04:22:31;;;;;;;2.90;2.47;;;;;;;11.18;56.54;95801.22;5009521;28;20133;-65
2021/08/21 04:24:57;;;;;;;2.95;2.67;;;;;;;11.18;56.91;95797.75;5010922;28;20105;-65
2021/08/21 04:27:22;;;;;;;3.45;2.58;;;;;;;11.21;56.40;95808.03;5010177;28;20442;-66
2021/08/21 04:29:47;;;;;;;2.67;2.47;;;;;;;11.22;56.26;95801.72;5010176;28;20045;-66
2021/08/21 04:32:13;;;;;;;3.10;2.60;;;;;;;11.23;56.55;95801.56;5010494;28;20380;-65
2021/08/21 04:34:38;;;;;;;3.20;2.67;;;;;;;11.25;55.78;95807.53;5008347;28;20072;-65
2021/08/21 04:37:04;;;;;;;4.47;2.60;;;;;;;11.29;56.20;95791.97;5010295;28;20045;-65
2021/08/21 04:39:29;;;;;;;3.00;2.40;;;;;;;11.33;56.13;95803.13;5010527;28;20026;-65
2021/08/21 04:41:55;;;;;;;3.47;2.47;;;;;;;11.36;55.96;95805.44;5009285;28;20057;-65
2021/08/21 04:44:20;;;;;;;4.75;2.45;;;;;;;11.41;55.77;95807.56;5010243;28;20030;-65
2021/08/21 04:46:45;;;;;;;2.90;2.60;;;;;;;11.44;55.73;95808.06;5010145;28;20045;-65
2021/08/21 04:49:11;;;;;;;3.38;2.70;;;;;;;11.53;55.49;95806.16;5009753;28;20162;-66
2021/08/21 04:51:36;;;;;;;3.08;2.55;;;;;;;11.58;55.39;95809.09;5009997;28;20041;-65
2021/08/21 04:54:02;;;;;;;5.15;2.80;;;;;;;11.67;55.32;95812.53;5009793;28;20052;-65
2021/08/21 04:56:27;;;;;;;3.90;2.85;;;;;;;11.78;54.77;95813.94;5009716;28;20026;-65
2021/08/21 04:58:53;;;;;;;4.97;2.95;;;;;;;11.88;54.56;95817.19;5008353;28;20042;-65
2021/08/21 05:01:19;;;;;;;3.20;2.90;;;;;;;12.00;54.23;95811.41;5009784;28;20822;-65
2021/08/21 05:03:44;;;;;;;3.78;2.90;;;;;;;12.09;53.57;95810.31;5009812;28;20748;-65
2021/08/21 05:06:11;;;;;;;4.35;2.95;;;;;;;12.19;53.72;95812.72;5009369;28;20045;-65
2021/08/21 05:08:36;;;;;;;6.22;3.10;;;;;;;12.28;53.30;95814.28;5008513;28;20041;-65
2021/08/21 05:11:02;;;;;;;4.47;3.15;;;;;;;12.37;52.99;95817.69;5009685;28;20274;-65
2021/08/21 05:13:27;;;;;;;5.18;3.58;;;;;;;12.44;52.85;95811.63;5007993;28;20037;-65
2021/08/21 05:15:52;;;;;;;3.83;3.38;;;;;;;12.54;52.63;95812.16;5009562;28;20541;-65
2021/08/21 05:18:25;;;;;;;7.38;3.60;;;;;;;12.63;52.56;95819.06;5009163;28;20679;-65
2021/08/21 05:20:52;;;;;;;4.90;3.67;;;;;;;12.74;52.24;95806.22;5005699;28;20597;-65
2021/08/21 05:23:18;;;;;;;7.15;3.50;;;;;;;12.85;51.68;95803.06;5009641;28;20078;-65
2021/08/21 05:25:47;;;;;;;6.00;3.63;;;;;;;12.93;51.45;95813.63;5006296;28;20121;-65
2021/08/21 05:28:16;;;;;;;4.47;3.58;;;;;;;13.00;51.60;95810.25;5000498;28;20138;-65
2021/08/21 05:30:42;;;;;;;4.50;3.65;;;;;;;13.08;51.30;95799.44;5000939;28;20056;-65
2021/08/21 05:33:09;;;;;;;5.38;3.42;;;;;;;13.18;51.08;95799.97;5005174;28;20110;-65
2021/08/21 05:35:34;;;;;;;4.90;3.65;;;;;;;13.28;50.73;95807.69;5001446;28;20041;-66
2021/08/21 05:38:00;;;;;;;5.88;3.65;;;;;;;13.37;50.55;95799.53;5002226;28;20495;-65
2021/08/21 05:40:25;;;;;;;6.90;3.60;;;;;;;13.45;50.42;95807.41;5003233;28;20373;-66
2021/08/21 05:42:50;;;;;;;8.65;3.97;;;;;;;13.55;50.48;95801.75;5002539;28;20030;-65
2021/08/21 05:45:16;;;;;;;6.00;3.85;;;;;;;13.65;50.12;95804.94;4997918;28;20031;-66
2021/08/21 05:47:41;;;;;;;5.75;4.07;;;;;;;13.74;49.93;95802.09;5002862;28;20535;-66
2021/08/21 05:50:07;;;;;;;7.72;4.32;;;;;;;13.88;49.69;95808.38;5002505;28;20156;-65
2021/08/21 05:52:33;;;;;;;9.02;4.40;;;;;;;14.00;49.36;95804.19;5002485;28;20057;-66
2021/08/21 05:54:58;;;;;;;5.68;4.35;;;;;;;14.13;49.13;95808.81;5002502;28;20038;-66
2021/08/21 05:57:23;;;;;;;6.93;4.47;;;;;;;14.27;48.78;95809.72;4999716;28;20052;-66
2021/08/21 05:59:49;;;;;;;6.88;4.85;;;;;;;14.41;48.57;95810.59;5002379;28;20030;-66
2021/08/21 06:02:14;;;;;;;7.63;4.72;;;;;;;14.57;48.12;95806.78;5002264;28;20045;-66
2021/08/21 06:04:40;;;;;;;7.07;4.53;;;;;;;14.74;48.12;95806.47;5002687;28;20319;-66
2021/08/21 06:07:05;;;;;;;6.53;4.60;;;;;;;14.94;47.55;95813.75;5002440;28;20402;-66
2021/08/21 06:09:30;;;;;;;7.70;5.03;;;;;;;15.13;47.33;95814.81;4996220;28;20044;-66
2021/08/21 06:11:56;;;;;;;8.02;5.18;;;;;;;15.32;47.04;95815.06;5003055;28;20057;-66
2021/08/21 06:14:21;;;;;;;7.82;5.10;;;;;;;15.53;46.73;95813.28;5002370;28;20034;-66
2021/08/21 06:16:47;;;;;;;7.70;5.18;;;;;;;15.75;46.52;95816.63;5001860;28;20080;-66
2021/08/21 06:19:12;;;;;;;7.57;5.05;;;;;;;15.93;46.06;95815.97;5001522;28;20041;-66
2021/08/21 06:21:38;;;;;;;8.45;5.40;;;;;;;16.11;45.99;95820.72;5002713;28;20034;-66
2021/08/21 06:24:03;;;;;;;8.18;5.30;;;;;;;16.26;45.33;95823.16;5003273;28;20034;-66
2021/08/21 06:26:29;;;;;;;6.82;5.07;;;;;;;16.44;45.10;95818.19;5003009;28;20511;-66
2021/08/21 06:28:54;;;;;;;8.77;5.25;;;;;;;16.61;44.85;95813.19;5001272;28;20482;-66
2021/08/21 06:31:20;;;;;;;6.95;5.00;;;;;;;16.77;44.33;95812.72;5002667;28;20041;-66
2021/08/21 06:33:45;;;;;;;7.80;5.45;;;;;;;16.96;44.33;95820.09;5002543;28;20034;-66
2021/08/21 06:36:11;;;;;;;7.82;5.35;;;;;;;17.08;43.86;95817.53;5003648;28;20249;-66
2021/08/21 06:38:36;;;;;;;7.57;5.47;;;;;;;17.21;43.70;95817.53;4999309;28;20046;-66
2021/08/21 06:41:01;;;;;;;7.57;5.00;;;;;;;17.36;43.80;95817.22;5000039;28;20155;-66
2021/08/21 06:43:27;;;;;;;7.10;4.82;;;;;;;17.52;43.75;95815.03;5003081;28;20030;-66
2021/08/21 06:45:52;;;;;;;7.22;4.80;;;;;;;17.65;44.07;95814.94;5000783;28;20401;-66
2021/08/21 06:48:18;;;;;;;8.50;5.10;;;;;;;17.77;43.20;95817.75;5000066;28;20034;-67
2021/08/21 06:50:44;;;;;;;6.68;4.60;;;;;;;17.92;43.20;95814.75;5005708;28;20041;-66
2021/08/21 06:53:09;;;;;;;5.57;4.10;;;;;;;18.07;42.36;95815.44;5006532;28;20045;-66
2021/08/21 06:55:35;;;;;;;6.80;4.38;;;;;;;18.21;43.36;95811.59;5006040;28;20545;-66
2021/08/21 06:58:00;;;;;;;7.22;4.15;;;;;;;18.33;42.77;95819.78;5004212;28;20038;-66
2021/08/21 07:00:25;;;;;;;6.90;4.22;;;;;;;18.41;42.21;95824.03;5005994;28;20037;-66
2021/08/21 07:02:51;;;;;;;4.90;3.80;;;;;;;18.56;42.87;95821.00;5006342;28;20093;-67
2021/08/21 07:05:16;;;;;;;6.93;4.10;;;;;;;18.67;41.61;95822.16;5004634;28;20494;-67
2021/08/21 07:07:42;;;;;;;7.10;3.85;;;;;;;18.72;42.11;95822.28;5004311;28;20049;-66
2021/08/21 07:10:08;;;;;;;4.95;3.70;;;;;;;18.85;42.36;95815.06;5004571;28;20068;-66
2021/08/21 07:12:33;;;;;;;4.63;3.88;;;;;;;18.92;42.42;95815.81;5006180;28;20038;-66
2021/08/21 07:14:59;;;;;;;4.45;3.60;;;;;;;18.95;41.27;95818.06;5003815;28;20034;-66
2021/08/21 07:17:24;;;;;;;4.22;3.45;;;;;;;19.02;42.84;95826.06;5004711;28;20363;-66
2021/08/21 07:19:49;;;;;;;6.90;3.85;;;;;;;19.08;39.98;95812.50;5006112;28;20034;-66
2021/08/21 07:22:15;;;;;;;7.18;4.30;;;;;;;19.05;40.72;95810.28;5004850;28;20115;-66
2021/08/21 07:24:40;;;;;;;7.22;4.47;;;;;;;18.93;40.37;95817.47;5005845;28;20026;-66
2021/08/21 07:27:06;;;;;;;8.30;4.65;;;;;;;18.77;40.06;95808.94;5003629;28;20038;-66
2021/08/21 07:29:31;;;;;;;11.95;5.32;;;;;;;18.76;40.67;95812.69;4995994;28;20130;-66
2021/08/21 07:31:57;;;;;;;7.10;5.43;;;;;;;18.87;39.83;95818.38;5002611;28;20478;-66
2021/08/21 07:34:22;;;;;;;9.13;5.40;;;;;;;18.81;40.75;95812.84;5003441;28;20059;-67
2021/08/21 07:36:48;;;;;;;11.85;6.15;;;;;;;18.86;41.30;95817.53;5003977;28;20275;-66
2021/08/21 07:39:13;;;;;;;7.63;5.20;;;;;;;18.93;40.14;95820.16;5005258;28;20038;-66
2021/08/21 07:41:38;;;;;;;10.20;6.18;;;;;;;18.92;39.81;95816.66;5004964;28;20307;-66
2021/08/21 07:44:04;;;;;;;11.45;6.57;;;;;;;18.94;40.22;95821.81;5005308;28;20510;-66
2021/08/21 07:46:30;;;;;;;10.23;6.40;;;;;;;18.90;40.47;95820.63;5003150;28;20049;-67
2021/08/21 07:48:55;;;;;;;9.18;5.80;;;;;;;18.99;40.18;95815.72;5003264;28;20095;-66
2021/08/21 07:51:21;;;;;;;7.40;5.40;;;;;;;19.19;41.10;95826.25;5005022;28;20367;-66
2021/08/21 07:53:46;;;;;;;9.90;6.32;;;;;;;19.06;38.78;95820.00;5004028;28;20046;-67
2021/08/21 07:56:11;;;;;;;9.82;6.10;;;;;;;19.05;39.38;95821.06;5004462;28;20034;-67
2021/08/21 07:58:37;;;;;;;9.55;6.20;;;;;;;19.08;39.25;95823.28;5000357;28;20042;-66
2021/08/21 08:01:02;;;;;;;11.13;6.30;;;;;;;18.98;38.84;95824.88;5003461;28;20406;-66
2021/08/21 08:03:28;;;;;;;9.43;5.38;;;;;;;19.31;38.47;95826.34;5004239;28;20585;-66
2021/08/21 08:05:53;;;;;;;8.00;5.40;;;;;;;19.29;38.82;95831.97;5004451;28;20149;-66
2021/08/21 08:08:20;;;;;;;8.63;5.13;;;;;;;19.68;38.55;95834.31;4997397;28;20033;-66
2021/08/21 08:10:45;;;;;;;6.93;4.67;;;;;;;19.65;39.11;95834.78;5003984;28;20631;-66
2021/08/21 08:13:11;;;;;;;7.88;4.88;;;;;;;19.84;37.86;95832.81;5004116;28;20034;-66
2021/08/21 08:15:36;;;;;;;6.45;4.88;;;;;;;20.33;38.87;95833.72;5004290;28;20038;-67
2021/08/21 08:18:02;;;;;;;5.90;4.10;;;;;;;20.58;37.67;95833.44;5002544;28;20388;-66
2021/08/21 08:20:27;;;;;;;8.07;4.10;;;;;;;20.70;37.07;95833.44;5005037;28;20373;-67
2021/08/21 08:22:54;;;;;;;7.60;4.65;;;;;;;20.66;37.78;95829.56;5004167;28;20049;-67
2021/08/21 08:25:19;;;;;;;8.37;4.80;;;;;;;20.49;37.35;95827.56;5004266;28;20045;-67
2021/08/21 08:27:46;;;;;;;5.40;3.95;;;;;;;20.94;37.09;95827.97;5003497;28;20033;-66
2021/08/21 08:30:12;;;;;;;5.30;3.03;;;;;;;21.12;37.79;95828.88;5004080;28;20092;-66
2021/08/21 08:32:37;;;;;;;6.45;3.70;;;;;;;21.38;36.95;95829.38;5003610;28;20029;-66
2021/08/21 08:35:03;;;;;;;4.85;3.30;;;;;;;21.37;36.81;95825.84;5004719;28;20050;-66
2021/08/21 08:37:28;;;;;;;5.82;4.00;;;;;;;21.50;35.08;95832.88;5002862;28;20103;-66
2021/08/21 08:39:54;;;;;;;5.88;3.72;;;;;;;21.43;36.42;95831.34;5004651;28;20137;-66
2021/08/21 08:42:20;;;;;;;3.85;3.30;;;;;;;21.77;36.44;95826.00;5004378;28;20072;-66
2021/08/21 08:44:46;;;;;;;5.20;2.90;;;;;;;21.98;35.98;95823.63;5001052;28;20161;-66
2021/08/21 08:47:16;;;;;;;6.70;3.63;;;;;;;21.79;34.36;95821.13;5003970;28;20593;-66
2021/08/21 08:49:42;;;;;;;5.93;4.10;;;;;;;21.79;35.06;95831.97;5003364;28;20045;-66
2021/08/21 08:52:08;;;;;;;5.22;3.70;;;;;;;22.01;34.79;95832.13;5002775;28;20610;-66
2021/08/21 08:54:34;;;;;;;4.00;3.22;;;;;;;22.14;35.84;95832.84;5003780;28;20070;-67
2021/08/21 08:56:59;;;;;;;3.70;2.83;;;;;;;21.64;34.56;95837.97;4999931;28;20567;-67
2021/08/21 08:59:25;;;;;;;5.28;2.63;;;;;;;21.87;34.93;95838.88;5003422;28;20114;-67
2021/08/21 09:01:51;;;;;;;4.88;3.70;;;;;;;22.13;33.86;95848.28;5002233;28;20111;-66
2021/08/21 09:04:18;;;;;;;4.38;3.22;;;;;;;22.41;34.47;95849.22;5003622;28;20089;-66
2021/08/21 09:06:44;;;;;;;5.93;4.30;;;;;;;22.49;33.18;95850.72;5003106;28;20072;-66
2021/08/21 09:09:14;;;;;;;7.10;4.72;;;;;;;22.52;32.59;95850.22;5000761;28;20056;-66
2021/08/21 09:11:42;;;;;;;5.65;3.80;;;;;;;22.78;33.56;95849.78;5003108;28;20385;-66
2021/08/21 09:14:18;;;;;;;4.55;3.33;;;;;;;22.92;34.65;95851.00;5003022;28;20033;-67
2021/08/21 09:16:43;;;;;;;6.93;4.03;;;;;;;23.16;32.14;95848.09;5001456;28;20038;-66
2021/08/21 09:19:09;;;;;;;6.25;4.95;;;;;;;23.42;32.00;95847.56;5002864;28;20037;-66
2021/08/21 09:21:34;;;;;;;6.55;4.10;;;;;;;23.14;32.35;95847.50;5003024;28;20030;-66
2021/08/21 09:24:00;;;;;;;4.60;3.65;;;;;;;23.30;33.42;95848.53;5003415;28;20034;-66
2021/08/21 09:26:35;;;;;;;6.65;4.95;;;;;;;23.52;32.71;95844.94;5002597;28;20042;-67
2021/08/21 09:29:01;;;;;;;2.90;2.60;;;;;;;23.84;33.10;95854.22;4999143;28;20495;-66
2021/08/21 09:31:32;;;;;;;3.78;3.08;;;;;;;23.82;31.25;95850.94;5001518;28;20112;-67
2021/08/21 09:34:06;;;;;;;7.05;4.80;;;;;;;23.76;31.81;95852.78;4984388;28;20496;-67
2021/08/21 09:36:41;;;;;;;5.30;4.03;;;;;;;23.94;30.80;95857.00;4985209;28;20094;-67
2021/08/21 09:39:11;;;;;;;2.97;2.17;;;;;;;24.31;30.57;95846.44;5000630;28;20117;-67
2021/08/21 09:41:56;;;;;;;3.40;2.90;;;;;;;24.12;31.09;95851.44;5000303;28;20040;-67
2021/08/21 09:44:29;;;;;;;4.22;3.38;;;;;;;24.48;30.62;95849.03;5001417;28;20034;-66
2021/08/21 09:47:20;;;;;;;5.20;3.70;;;;;;;24.41;30.21;95846.50;4999326;28;20106;-66
2021/08/21 09:49:46;;;;;;;2.72;2.10;;;;;;;24.65;30.57;95848.84;5002015;28;20042;-66
2021/08/21 09:52:15;;;;;;;4.97;3.63;;;;;;;24.52;30.05;95844.69;5003504;28;20664;-67
2021/08/21 09:55:04;;;;;;;2.72;2.20;;;;;;;24.69;29.79;95832.81;5013979;28;20041;-67
2021/08/21 09:57:29;;;;;;;5.38;3.38;;;;;;;24.39;30.03;95840.53;4999661;28;20034;-66
2021/08/21 09:59:57;;;;;;;6.73;3.67;;;;;;;24.73;30.62;95838.50;5001440;28;20095;-67
2021/08/21 10:02:23;;;;;;;2.08;1.95;;;;;;;25.25;29.22;95836.03;4985101;28;20038;-66
2021/08/21 10:04:48;;;;;;;2.60;2.27;;;;;;;25.05;30.38;95838.41;5001243;28;20025;-67
2021/08/21 10:07:17;;;;;;;4.87;3.80;;;;;;;25.19;28.64;95838.72;5002504;28;20045;-66
2021/08/21 10:09:43;;;;;;;4.53;2.10;;;;;;;25.58;27.45;95836.69;5001521;28;20046;-67
2021/08/21 10:12:11;;;;;;;7.73;3.57;;;;;;;25.38;28.64;95835.53;5002327;28;20036;-66
2021/08/21 10:14:38;;;;;;;3.15;2.00;;;;;;;25.70;28.27;95829.06;5001743;28;20054;-66
2021/08/21 10:17:04;;;;;;;2.88;2.63;;;;;;;25.78;28.07;95821.44;5000598;28;20234;-66
2021/08/21 10:19:29;;;;;;;2.83;2.30;;;;;;;25.68;26.37;95842.16;5001755;28;20029;-66
2021/08/21 10:21:56;;;;;;;3.67;2.97;;;;;;;24.93;28.66;95827.78;4997731;28;20042;-66
2021/08/21 10:24:36;;;;;;;4.60;3.92;;;;;;;25.31;28.03;95832.22;5001664;28;20026;-66
2021/08/21 10:27:13;;;;;;;4.13;3.00;;;;;;;25.23;29.52;95828.13;5000341;28;20464;-66
2021/08/21 10:29:39;;;;;;;2.97;2.67;;;;;;;25.70;27.66;95823.59;4996807;28;20098;-67
2021/08/21 10:32:05;;;;;;;2.30;2.10;;;;;;;25.91;28.25;95826.34;4968070;28;20060;-66
2021/08/21 10:34:50;;;;;;;2.60;2.10;;;;;;;25.98;27.21;95828.81;4994455;28;20097;-66
2021/08/21 10:37:38;;;;;;;6.20;3.28;;;;;;;25.77;27.73;95825.25;5001384;28;20097;-66
2021/08/21 10:40:27;;;;;;;3.17;2.05;;;;;;;26.19;26.89;95820.63;5002441;28;20156;-66
2021/08/21 10:42:54;;;;;;;5.18;3.83;;;;;;;26.00;27.61;95821.16;4998274;28;20505;-66
2021/08/21 10:45:42;;;;;;;3.63;2.70;;;;;;;25.78;28.37;95821.44;5000428;28;20483;-66
2021/08/21 10:48:12;;;;;;;3.55;2.15;;;;;;;25.91;26.89;95829.09;5000658;28;20082;-66
2021/08/21 10:50:45;;;;;;;6.13;2.83;;;;;;;25.68;27.88;95817.63;5000898;28;20522;-66
2021/08/21 10:53:20;;;;;;;4.80;2.78;;;;;;;25.40;27.81;95819.75;5001609;28;20106;-66
2021/08/21 10:55:46;;;;;;;3.40;2.13;;;;;;;25.46;27.64;95821.41;5002125;28;20622;-66
2021/08/21 10:58:18;;;;;;;3.00;2.70;;;;;;;25.58;27.71;95815.72;4998710;28;20102;-66
2021/08/21 11:00:54;;;;;;;3.50;2.80;;;;;;;25.63;28.01;95817.63;4998823;28;20166;-66
2021/08/21 11:03:22;;;;;;;4.88;2.88;;;;;;;25.26;27.88;95824.06;4995947;28;20085;-66
2021/08/21 11:06:05;;;;;;;2.60;2.40;;;;;;;25.84;25.62;95818.44;4999031;28;20253;-66
2021/08/21 11:08:32;;;;;;;2.92;2.63;;;;;;;25.37;27.29;95817.53;4998821;28;20090;-67
2021/08/21 11:11:10;;;;;;;2.63;2.40;;;;;;;25.72;27.90;95807.81;5001217;28;20122;-66
2021/08/21 11:14:24;;;;;;;3.88;3.25;;;;;;;26.26;27.74;95812.16;5001120;28;20102;-66
2021/08/21 11:17:02;;;;;;;2.60;2.15;;;;;;;27.04;27.90;95810.03;4969634;28;20138;-66
2021/08/21 11:19:44;;;;;;;4.78;2.97;;;;;;;26.58;24.46;95813.78;4991464;28;20363;-66
2021/08/21 11:22:13;;;;;;;3.05;2.47;;;;;;;26.54;25.56;95807.22;4999344;28;20057;-66
2021/08/21 11:24:51;;;;;;;2.38;2.17;;;;;;;26.70;26.04;95803.34;5001685;28;20026;-66
2021/08/21 11:27:26;;;;;;;3.00;2.55;;;;;;;24.58;27.50;95810.16;4996398;28;20100;-66
2021/08/21 11:30:10;;;;;;;2.78;2.47;;;;;;;25.78;26.90;95799.63;5000699;28;20132;-66
2021/08/21 11:33:08;;;;;;;5.32;3.80;;;;;;;26.23;27.84;95805.34;5000594;28;20034;-66
2021/08/21 11:35:37;;;;;;;2.47;2.13;;;;;;;27.06;25.75;95807.03;4975380;28;20118;-66